sensor_id;sensor_type;location;lat;lon;timestamp;P1;durP1;ratioP1;P2;durP2;ratioP2
4812;SDS011;2420;51.202;8.698;2023-07-31T00:00:01;1.40;;;1.30;;
4812;SDS011;2420;51.202;8.698;2023-07-31T00:02:27;2.75;;;1.33;;
4812;SDS011;2420;51.202;8.698;2023-07-31T00:04:53;1.98;;;1.50;;
4812;SDS011;2420;51.202;8.698;2023-07-31T00:07:18;3.60;;;1.85;;
4812;SDS011;2420;51.202;8.698;2023-07-31T00:09:44;2.30;;;1.80;;
4812;SDS011;2420;51.202;8.698;2023-07-31T00:12:09;2.22;;;1.77;;
4812;SDS011;2420;51.202;8.698;2023-07-31T00:14:35;3.30;;;1.83;;
4812;SDS011;2420;51.202;8.698;2023-07-31T00:17:00;2.35;;;1.80;;
4812;SDS011;2420;51.202;8.698;2023-07-31T00:19:26;3.67;;;1.90;;
4812;SDS011;2420;51.202;8.698;2023-07-31T00:21:52;3.33;;;1.75;;
4812;SDS011;2420;51.202;8.698;2023-07-31T00:24:17;4.95;;;1.80;;
4812;SDS011;2420;51.202;8.698;2023-07-31T00:26:43;2.55;;;2.08;;
4812;SDS011;2420;51.202;8.698;2023-07-31T00:29:08;2.97;;;1.80;;
4812;SDS011;2420;51.202;8.698;2023-07-31T00:31:34;3.45;;;1.50;;
4812;SDS011;2420;51.202;8.698;2023-07-31T00:33:59;3.03;;;1.77;;
4812;SDS011;2420;51.202;8.698;2023-07-31T00:36:25;2.05;;;1.77;;
4812;SDS011;2420;51.202;8.698;2023-07-31T00:38:50;2.03;;;1.50;;
4812;SDS011;2420;51.202;8.698;2023-07-31T00:41:16;3.45;;;1.60;;
4812;SDS011;2420;51.202;8.698;2023-07-31T00:43:41;3.38;;;1.67;;
4812;SDS011;2420;51.202;8.698;2023-07-31T00:46:07;2.35;;;1.65;;
4812;SDS011;2420;51.202;8.698;2023-07-31T00:48:33;2.00;;;1.67;;
4812;SDS011;2420;51.202;8.698;2023-07-31T00:51:00;2.47;;;1.80;;
4812;SDS011;2420;51.202;8.698;2023-07-31T00:53:26;1.88;;;1.60;;
4812;SDS011;2420;51.202;8.698;2023-07-31T00:55:52;2.38;;;1.80;;
4812;SDS011;2420;51.202;8.698;2023-07-31T00:58:18;2.63;;;1.88;;
4812;SDS011;2420;51.202;8.698;2023-07-31T01:00:44;2.15;;;1.88;;
4812;SDS011;2420;51.202;8.698;2023-07-31T01:03:10;2.90;;;1.90;;
4812;SDS011;2420;51.202;8.698;2023-07-31T01:05:39;3.25;;;1.95;;
4812;SDS011;2420;51.202;8.698;2023-07-31T01:08:20;3.42;;;1.80;;
4812;SDS011;2420;51.202;8.698;2023-07-31T01:10:56;3.05;;;1.90;;
4812;SDS011;2420;51.202;8.698;2023-07-31T01:13:32;3.00;;;1.70;;
4812;SDS011;2420;51.202;8.698;2023-07-31T01:15:58;2.63;;;1.80;;
4812;SDS011;2420;51.202;8.698;2023-07-31T01:18:23;2.67;;;1.95;;
4812;SDS011;2420;51.202;8.698;2023-07-31T01:20:53;3.25;;;2.75;;
4812;SDS011;2420;51.202;8.698;2023-07-31T01:23:26;4.72;;;2.25;;
4812;SDS011;2420;51.202;8.698;2023-07-31T01:26:19;4.85;;;3.03;;
4812;SDS011;2420;51.202;8.698;2023-07-31T01:31:14;5.32;;;3.22;;
4812;SDS011;2420;51.202;8.698;2023-07-31T01:33:44;6.70;;;3.30;;
4812;SDS011;2420;51.202;8.698;2023-07-31T01:36:11;4.45;;;2.95;;
4812;SDS011;2420;51.202;8.698;2023-07-31T01:38:37;4.50;;;3.40;;
4812;SDS011;2420;51.202;8.698;2023-07-31T01:41:02;5.05;;;3.40;;
4812;SDS011;2420;51.202;8.698;2023-07-31T01:43:28;5.07;;;3.75;;
4812;SDS011;2420;51.202;8.698;2023-07-31T01:45:53;5.35;;;3.67;;
4812;SDS011;2420;51.202;8.698;2023-07-31T01:48:19;5.32;;;3.55;;
4812;SDS011;2420;51.202;8.698;2023-07-31T01:50:44;5.15;;;3.88;;
4812;SDS011;2420;51.202;8.698;2023-07-31T01:53:10;6.25;;;3.78;;
4812;SDS011;2420;51.202;8.698;2023-07-31T01:55:37;5.63;;;4.22;;
4812;SDS011;2420;51.202;8.698;2023-07-31T01:58:02;5.70;;;4.00;;
4812;SDS011;2420;51.202;8.698;2023-07-31T02:00:28;6.80;;;3.88;;
4812;SDS011;2420;51.202;8.698;2023-07-31T02:02:53;6.95;;;3.75;;
4812;SDS011;2420;51.202;8.698;2023-07-31T02:05:19;6.70;;;3.90;;
4812;SDS011;2420;51.202;8.698;2023-07-31T02:07:44;5.10;;;3.67;;
4812;SDS011;2420;51.202;8.698;2023-07-31T02:10:10;5.70;;;3.60;;
4812;SDS011;2420;51.202;8.698;2023-07-31T02:12:35;6.35;;;3.90;;
4812;SDS011;2420;51.202;8.698;2023-07-31T02:15:01;5.82;;;3.70;;
4812;SDS011;2420;51.202;8.698;2023-07-31T02:17:27;7.38;;;4.00;;
4812;SDS011;2420;51.202;8.698;2023-07-31T02:19:53;7.03;;;3.92;;
4812;SDS011;2420;51.202;8.698;2023-07-31T02:22:19;6.20;;;3.80;;
4812;SDS011;2420;51.202;8.698;2023-07-31T02:24:44;5.95;;;3.70;;
4812;SDS011;2420;51.202;8.698;2023-07-31T02:27:10;7.65;;;4.13;;
4812;SDS011;2420;51.202;8.698;2023-07-31T02:29:36;7.55;;;4.10;;
4812;SDS011;2420;51.202;8.698;2023-07-31T02:32:01;6.10;;;4.50;;
4812;SDS011;2420;51.202;8.698;2023-07-31T02:34:27;6.68;;;4.75;;
4812;SDS011;2420;51.202;8.698;2023-07-31T02:36:53;8.98;;;4.72;;
4812;SDS011;2420;51.202;8.698;2023-07-31T02:39:18;7.75;;;4.35;;
4812;SDS011;2420;51.202;8.698;2023-07-31T02:41:44;9.43;;;5.00;;
4812;SDS011;2420;51.202;8.698;2023-07-31T02:44:09;7.30;;;4.95;;
4812;SDS011;2420;51.202;8.698;2023-07-31T02:46:35;6.93;;;5.30;;
4812;SDS011;2420;51.202;8.698;2023-07-31T02:49:01;8.57;;;5.55;;
4812;SDS011;2420;51.202;8.698;2023-07-31T02:51:26;6.57;;;5.03;;
4812;SDS011;2420;51.202;8.698;2023-07-31T02:53:52;7.63;;;4.60;;
4812;SDS011;2420;51.202;8.698;2023-07-31T02:56:17;6.93;;;4.85;;
4812;SDS011;2420;51.202;8.698;2023-07-31T02:58:43;6.07;;;4.35;;
4812;SDS011;2420;51.202;8.698;2023-07-31T03:01:08;5.35;;;4.35;;
4812;SDS011;2420;51.202;8.698;2023-07-31T03:03:34;7.32;;;4.30;;
4812;SDS011;2420;51.202;8.698;2023-07-31T03:06:00;7.22;;;4.55;;
4812;SDS011;2420;51.202;8.698;2023-07-31T03:08:25;6.97;;;4.00;;
4812;SDS011;2420;51.202;8.698;2023-07-31T03:10:51;5.90;;;3.92;;
4812;SDS011;2420;51.202;8.698;2023-07-31T03:13:16;5.25;;;3.45;;
4812;SDS011;2420;51.202;8.698;2023-07-31T03:15:42;6.10;;;3.65;;
4812;SDS011;2420;51.202;8.698;2023-07-31T03:18:08;4.95;;;3.40;;
4812;SDS011;2420;51.202;8.698;2023-07-31T03:20:34;5.55;;;4.07;;
4812;SDS011;2420;51.202;8.698;2023-07-31T03:22:59;7.28;;;3.50;;
4812;SDS011;2420;51.202;8.698;2023-07-31T03:25:25;9.10;;;3.85;;
4812;SDS011;2420;51.202;8.698;2023-07-31T03:27:50;7.22;;;3.22;;
4812;SDS011;2420;51.202;8.698;2023-07-31T03:30:16;7.43;;;3.75;;
4812;SDS011;2420;51.202;8.698;2023-07-31T03:32:42;6.13;;;3.60;;
4812;SDS011;2420;51.202;8.698;2023-07-31T03:35:07;4.57;;;3.15;;
4812;SDS011;2420;51.202;8.698;2023-07-31T03:37:33;4.60;;;3.22;;
4812;SDS011;2420;51.202;8.698;2023-07-31T03:39:58;5.68;;;3.35;;
4812;SDS011;2420;51.202;8.698;2023-07-31T03:42:24;5.85;;;3.20;;
4812;SDS011;2420;51.202;8.698;2023-07-31T03:44:49;5.80;;;3.45;;
4812;SDS011;2420;51.202;8.698;2023-07-31T03:47:15;7.30;;;3.63;;
4812;SDS011;2420;51.202;8.698;2023-07-31T03:49:40;5.35;;;3.10;;
4812;SDS011;2420;51.202;8.698;2023-07-31T03:52:06;3.90;;;3.28;;
4812;SDS011;2420;51.202;8.698;2023-07-31T03:54:31;6.32;;;3.33;;
4812;SDS011;2420;51.202;8.698;2023-07-31T03:56:57;6.93;;;3.33;;
4812;SDS011;2420;51.202;8.698;2023-07-31T03:59:23;5.00;;;3.10;;
4812;SDS011;2420;51.202;8.698;2023-07-31T04:01:49;4.90;;;3.33;;
4812;SDS011;2420;51.202;8.698;2023-07-31T04:04:14;6.78;;;3.50;;
4812;SDS011;2420;51.202;8.698;2023-07-31T04:06:40;5.85;;;3.70;;
4812;SDS011;2420;51.202;8.698;2023-07-31T04:09:05;5.50;;;3.63;;
4812;SDS011;2420;51.202;8.698;2023-07-31T04:11:31;6.28;;;3.50;;
4812;SDS011;2420;51.202;8.698;2023-07-31T04:13:57;6.85;;;3.60;;
4812;SDS011;2420;51.202;8.698;2023-07-31T04:16:22;4.90;;;3.45;;
4812;SDS011;2420;51.202;8.698;2023-07-31T04:18:48;7.50;;;3.60;;
4812;SDS011;2420;51.202;8.698;2023-07-31T04:21:13;7.75;;;3.63;;
4812;SDS011;2420;51.202;8.698;2023-07-31T04:23:39;6.55;;;3.47;;
4812;SDS011;2420;51.202;8.698;2023-07-31T04:26:04;5.72;;;4.18;;
4812;SDS011;2420;51.202;8.698;2023-07-31T04:28:30;6.50;;;3.55;;
4812;SDS011;2420;51.202;8.698;2023-07-31T04:30:56;7.10;;;3.58;;
4812;SDS011;2420;51.202;8.698;2023-07-31T04:33:22;8.82;;;3.92;;
4812;SDS011;2420;51.202;8.698;2023-07-31T04:35:51;10.73;;;3.75;;
4812;SDS011;2420;51.202;8.698;2023-07-31T04:38:18;6.10;;;3.70;;
4812;SDS011;2420;51.202;8.698;2023-07-31T04:40:44;6.68;;;3.60;;
4812;SDS011;2420;51.202;8.698;2023-07-31T04:43:10;7.43;;;3.55;;
4812;SDS011;2420;51.202;8.698;2023-07-31T04:45:35;9.77;;;4.10;;
4812;SDS011;2420;51.202;8.698;2023-07-31T04:48:01;8.77;;;4.20;;
4812;SDS011;2420;51.202;8.698;2023-07-31T04:50:26;7.03;;;3.70;;
4812;SDS011;2420;51.202;8.698;2023-07-31T04:52:52;5.57;;;3.60;;
4812;SDS011;2420;51.202;8.698;2023-07-31T04:55:17;4.63;;;3.65;;
4812;SDS011;2420;51.202;8.698;2023-07-31T04:57:43;6.50;;;3.45;;
4812;SDS011;2420;51.202;8.698;2023-07-31T05:00:08;5.78;;;4.05;;
4812;SDS011;2420;51.202;8.698;2023-07-31T05:02:34;7.60;;;3.75;;
4812;SDS011;2420;51.202;8.698;2023-07-31T05:05:00;5.97;;;3.50;;
4812;SDS011;2420;51.202;8.698;2023-07-31T05:07:25;8.82;;;3.67;;
4812;SDS011;2420;51.202;8.698;2023-07-31T05:09:51;5.43;;;3.70;;
4812;SDS011;2420;51.202;8.698;2023-07-31T05:12:16;5.72;;;3.60;;
4812;SDS011;2420;51.202;8.698;2023-07-31T05:14:42;7.43;;;3.60;;
4812;SDS011;2420;51.202;8.698;2023-07-31T05:17:07;6.43;;;3.88;;
4812;SDS011;2420;51.202;8.698;2023-07-31T05:19:33;6.03;;;3.53;;
4812;SDS011;2420;51.202;8.698;2023-07-31T05:21:58;7.18;;;4.10;;
4812;SDS011;2420;51.202;8.698;2023-07-31T05:24:24;6.18;;;3.55;;
4812;SDS011;2420;51.202;8.698;2023-07-31T05:26:49;9.02;;;3.95;;
4812;SDS011;2420;51.202;8.698;2023-07-31T05:29:15;7.03;;;3.40;;
4812;SDS011;2420;51.202;8.698;2023-07-31T05:31:41;5.32;;;3.80;;
4812;SDS011;2420;51.202;8.698;2023-07-31T05:34:07;5.95;;;4.10;;
4812;SDS011;2420;51.202;8.698;2023-07-31T05:36:32;8.48;;;3.88;;
4812;SDS011;2420;51.202;8.698;2023-07-31T05:38:58;6.53;;;4.03;;
4812;SDS011;2420;51.202;8.698;2023-07-31T05:41:23;6.10;;;3.70;;
4812;SDS011;2420;51.202;8.698;2023-07-31T05:43:49;5.57;;;3.50;;
4812;SDS011;2420;51.202;8.698;2023-07-31T05:46:14;6.20;;;3.30;;
4812;SDS011;2420;51.202;8.698;2023-07-31T05:48:40;6.72;;;3.53;;
4812;SDS011;2420;51.202;8.698;2023-07-31T05:51:06;4.18;;;3.08;;
4812;SDS011;2420;51.202;8.698;2023-07-31T05:53:32;5.97;;;3.53;;
4812;SDS011;2420;51.202;8.698;2023-07-31T05:55:57;6.07;;;3.28;;
4812;SDS011;2420;51.202;8.698;2023-07-31T05:58:23;4.60;;;2.88;;
4812;SDS011;2420;51.202;8.698;2023-07-31T06:00:48;3.90;;;2.72;;
4812;SDS011;2420;51.202;8.698;2023-07-31T06:03:14;5.20;;;3.25;;
4812;SDS011;2420;51.202;8.698;2023-07-31T06:05:40;5.18;;;3.10;;
4812;SDS011;2420;51.202;8.698;2023-07-31T06:08:05;5.07;;;3.10;;
4812;SDS011;2420;51.202;8.698;2023-07-31T06:10:31;4.32;;;2.88;;
4812;SDS011;2420;51.202;8.698;2023-07-31T06:12:56;6.07;;;3.20;;
4812;SDS011;2420;51.202;8.698;2023-07-31T06:15:22;3.28;;;2.50;;
4812;SDS011;2420;51.202;8.698;2023-07-31T06:17:48;3.88;;;2.42;;
4812;SDS011;2420;51.202;8.698;2023-07-31T06:20:13;4.25;;;2.60;;
4812;SDS011;2420;51.202;8.698;2023-07-31T06:22:39;2.72;;;2.17;;
4812;SDS011;2420;51.202;8.698;2023-07-31T06:25:04;2.58;;;2.17;;
4812;SDS011;2420;51.202;8.698;2023-07-31T06:27:30;3.17;;;2.28;;
4812;SDS011;2420;51.202;8.698;2023-07-31T06:29:56;3.22;;;2.20;;
4812;SDS011;2420;51.202;8.698;2023-07-31T06:32:21;2.20;;;2.00;;
4812;SDS011;2420;51.202;8.698;2023-07-31T06:34:47;2.70;;;2.00;;
4812;SDS011;2420;51.202;8.698;2023-07-31T06:37:12;3.78;;;2.20;;
4812;SDS011;2420;51.202;8.698;2023-07-31T06:39:38;2.35;;;2.10;;
4812;SDS011;2420;51.202;8.698;2023-07-31T06:42:03;3.42;;;2.45;;
4812;SDS011;2420;51.202;8.698;2023-07-31T06:44:29;4.20;;;2.70;;
4812;SDS011;2420;51.202;8.698;2023-07-31T06:46:55;3.85;;;2.55;;
4812;SDS011;2420;51.202;8.698;2023-07-31T06:49:20;3.70;;;2.45;;
4812;SDS011;2420;51.202;8.698;2023-07-31T06:51:46;3.28;;;2.30;;
4812;SDS011;2420;51.202;8.698;2023-07-31T06:54:12;5.38;;;3.03;;
4812;SDS011;2420;51.202;8.698;2023-07-31T06:56:37;4.07;;;2.80;;
4812;SDS011;2420;51.202;8.698;2023-07-31T06:59:03;3.67;;;2.95;;
4812;SDS011;2420;51.202;8.698;2023-07-31T07:01:28;5.22;;;3.40;;
4812;SDS011;2420;51.202;8.698;2023-07-31T07:03:54;5.55;;;3.08;;
4812;SDS011;2420;51.202;8.698;2023-07-31T07:06:20;5.47;;;3.40;;
4812;SDS011;2420;51.202;8.698;2023-07-31T07:08:47;4.50;;;3.30;;
4812;SDS011;2420;51.202;8.698;2023-07-31T07:11:13;6.75;;;3.40;;
4812;SDS011;2420;51.202;8.698;2023-07-31T07:13:38;6.65;;;3.58;;
4812;SDS011;2420;51.202;8.698;2023-07-31T07:16:04;6.95;;;3.30;;
4812;SDS011;2420;51.202;8.698;2023-07-31T07:18:29;6.20;;;3.30;;
4812;SDS011;2420;51.202;8.698;2023-07-31T07:20:55;6.60;;;3.72;;
4812;SDS011;2420;51.202;8.698;2023-07-31T07:23:23;6.00;;;3.08;;
4812;SDS011;2420;51.202;8.698;2023-07-31T07:25:48;6.10;;;3.38;;
4812;SDS011;2420;51.202;8.698;2023-07-31T07:28:14;6.75;;;3.42;;
4812;SDS011;2420;51.202;8.698;2023-07-31T07:30:40;6.13;;;3.63;;
4812;SDS011;2420;51.202;8.698;2023-07-31T07:33:05;7.22;;;3.60;;
4812;SDS011;2420;51.202;8.698;2023-07-31T07:35:34;7.00;;;3.60;;
4812;SDS011;2420;51.202;8.698;2023-07-31T07:38:01;6.63;;;3.53;;
4812;SDS011;2420;51.202;8.698;2023-07-31T07:40:27;6.63;;;3.70;;
4812;SDS011;2420;51.202;8.698;2023-07-31T07:42:53;4.88;;;3.40;;
4812;SDS011;2420;51.202;8.698;2023-07-31T07:45:18;4.55;;;3.30;;
4812;SDS011;2420;51.202;8.698;2023-07-31T07:47:44;9.98;;;4.18;;
4812;SDS011;2420;51.202;8.698;2023-07-31T07:50:09;6.28;;;3.28;;
4812;SDS011;2420;51.202;8.698;2023-07-31T07:52:35;5.13;;;3.75;;
4812;SDS011;2420;51.202;8.698;2023-07-31T07:55:00;4.25;;;3.38;;
4812;SDS011;2420;51.202;8.698;2023-07-31T07:57:26;5.65;;;3.35;;
4812;SDS011;2420;51.202;8.698;2023-07-31T07:59:52;6.85;;;3.83;;
4812;SDS011;2420;51.202;8.698;2023-07-31T08:02:17;4.22;;;3.28;;
4812;SDS011;2420;51.202;8.698;2023-07-31T08:04:43;6.28;;;4.20;;
4812;SDS011;2420;51.202;8.698;2023-07-31T08:07:12;6.53;;;3.65;;
4812;SDS011;2420;51.202;8.698;2023-07-31T08:09:38;8.90;;;3.95;;
4812;SDS011;2420;51.202;8.698;2023-07-31T08:12:04;5.75;;;3.20;;
4812;SDS011;2420;51.202;8.698;2023-07-31T08:14:30;5.45;;;3.60;;
4812;SDS011;2420;51.202;8.698;2023-07-31T08:16:55;5.82;;;3.13;;
4812;SDS011;2420;51.202;8.698;2023-07-31T08:19:21;4.30;;;3.00;;
4812;SDS011;2420;51.202;8.698;2023-07-31T08:21:47;4.55;;;3.00;;
4812;SDS011;2420;51.202;8.698;2023-07-31T08:24:13;3.55;;;2.92;;
4812;SDS011;2420;51.202;8.698;2023-07-31T08:26:38;5.40;;;3.20;;
4812;SDS011;2420;51.202;8.698;2023-07-31T08:29:04;4.50;;;3.10;;
4812;SDS011;2420;51.202;8.698;2023-07-31T08:31:29;6.45;;;3.00;;
4812;SDS011;2420;51.202;8.698;2023-07-31T08:33:55;3.25;;;2.70;;
4812;SDS011;2420;51.202;8.698;2023-07-31T08:36:21;11.65;;;3.55;;
4812;SDS011;2420;51.202;8.698;2023-07-31T08:38:47;4.95;;;3.13;;
4812;SDS011;2420;51.202;8.698;2023-07-31T08:41:12;5.40;;;3.00;;
4812;SDS011;2420;51.202;8.698;2023-07-31T08:43:38;5.40;;;3.00;;
4812;SDS011;2420;51.202;8.698;2023-07-31T08:46:04;5.28;;;3.28;;
4812;SDS011;2420;51.202;8.698;2023-07-31T08:48:31;4.30;;;2.88;;
4812;SDS011;2420;51.202;8.698;2023-07-31T08:50:58;4.47;;;3.00;;
4812;SDS011;2420;51.202;8.698;2023-07-31T08:53:23;3.85;;;3.05;;
4812;SDS011;2420;51.202;8.698;2023-07-31T08:55:49;5.35;;;2.83;;
4812;SDS011;2420;51.202;8.698;2023-07-31T08:58:15;7.03;;;2.90;;
4812;SDS011;2420;51.202;8.698;2023-07-31T09:00:43;4.05;;;3.22;;
4812;SDS011;2420;51.202;8.698;2023-07-31T09:03:15;3.85;;;3.08;;
4812;SDS011;2420;51.202;8.698;2023-07-31T09:05:44;4.35;;;2.90;;
4812;SDS011;2420;51.202;8.698;2023-07-31T09:08:12;4.47;;;3.13;;
4812;SDS011;2420;51.202;8.698;2023-07-31T09:10:42;4.72;;;2.95;;
4812;SDS011;2420;51.202;8.698;2023-07-31T09:13:10;4.80;;;3.25;;
4812;SDS011;2420;51.202;8.698;2023-07-31T09:15:36;5.43;;;3.25;;
4812;SDS011;2420;51.202;8.698;2023-07-31T09:18:03;5.93;;;3.30;;
4812;SDS011;2420;51.202;8.698;2023-07-31T09:20:30;5.28;;;3.10;;
4812;SDS011;2420;51.202;8.698;2023-07-31T09:22:56;3.90;;;2.83;;
4812;SDS011;2420;51.202;8.698;2023-07-31T09:25:32;4.82;;;2.95;;
4812;SDS011;2420;51.202;8.698;2023-07-31T09:27:58;6.07;;;3.20;;
4812;SDS011;2420;51.202;8.698;2023-07-31T09:30:32;5.25;;;3.50;;
4812;SDS011;2420;51.202;8.698;2023-07-31T09:33:15;4.15;;;3.03;;
4812;SDS011;2420;51.202;8.698;2023-07-31T09:35:42;4.22;;;3.10;;
4812;SDS011;2420;51.202;8.698;2023-07-31T09:38:09;5.43;;;3.25;;
4812;SDS011;2420;51.202;8.698;2023-07-31T09:40:36;8.80;;;3.65;;
4812;SDS011;2420;51.202;8.698;2023-07-31T09:43:04;5.40;;;3.42;;
4812;SDS011;2420;51.202;8.698;2023-07-31T09:45:36;5.35;;;3.60;;
4812;SDS011;2420;51.202;8.698;2023-07-31T09:48:03;4.47;;;3.00;;
4812;SDS011;2420;51.202;8.698;2023-07-31T09:50:31;6.40;;;3.30;;
4812;SDS011;2420;51.202;8.698;2023-07-31T09:52:57;5.15;;;3.13;;
4812;SDS011;2420;51.202;8.698;2023-07-31T09:55:23;5.82;;;3.33;;
4812;SDS011;2420;51.202;8.698;2023-07-31T09:57:49;5.68;;;3.20;;
4812;SDS011;2420;51.202;8.698;2023-07-31T10:00:15;5.82;;;3.08;;
4812;SDS011;2420;51.202;8.698;2023-07-31T10:02:44;3.65;;;2.88;;
4812;SDS011;2420;51.202;8.698;2023-07-31T10:05:12;4.63;;;3.00;;
4812;SDS011;2420;51.202;8.698;2023-07-31T10:07:40;4.82;;;3.17;;
4812;SDS011;2420;51.202;8.698;2023-07-31T10:10:08;4.32;;;3.00;;
4812;SDS011;2420;51.202;8.698;2023-07-31T10:12:34;4.28;;;2.80;;
4812;SDS011;2420;51.202;8.698;2023-07-31T10:15:01;5.07;;;2.85;;
4812;SDS011;2420;51.202;8.698;2023-07-31T10:17:27;4.15;;;2.67;;
4812;SDS011;2420;51.202;8.698;2023-07-31T10:19:56;4.65;;;2.92;;
4812;SDS011;2420;51.202;8.698;2023-07-31T10:22:23;7.00;;;2.60;;
4812;SDS011;2420;51.202;8.698;2023-07-31T10:24:50;3.05;;;1.90;;
4812;SDS011;2420;51.202;8.698;2023-07-31T10:27:17;3.17;;;2.20;;
4812;SDS011;2420;51.202;8.698;2023-07-31T10:29:43;6.07;;;2.08;;
4812;SDS011;2420;51.202;8.698;2023-07-31T10:32:12;5.40;;;2.13;;
4812;SDS011;2420;51.202;8.698;2023-07-31T10:34:38;2.50;;;1.83;;
4812;SDS011;2420;51.202;8.698;2023-07-31T10:40:01;2.10;;;1.60;;
4812;SDS011;2420;51.202;8.698;2023-07-31T10:42:47;2.35;;;1.85;;
4812;SDS011;2420;51.202;8.698;2023-07-31T10:45:13;2.88;;;2.13;;
4812;SDS011;2420;51.202;8.698;2023-07-31T10:47:48;3.15;;;1.95;;
4812;SDS011;2420;51.202;8.698;2023-07-31T10:50:20;2.03;;;1.50;;
4812;SDS011;2420;51.202;8.698;2023-07-31T10:52:49;2.22;;;1.70;;
4812;SDS011;2420;51.202;8.698;2023-07-31T10:55:26;2.47;;;1.52;;
4812;SDS011;2420;51.202;8.698;2023-07-31T10:57:53;2.70;;;1.40;;
4812;SDS011;2420;51.202;8.698;2023-07-31T11:00:41;2.10;;;1.60;;
4812;SDS011;2420;51.202;8.698;2023-07-31T11:03:09;2.20;;;1.52;;
4812;SDS011;2420;51.202;8.698;2023-07-31T11:05:48;3.00;;;1.70;;
4812;SDS011;2420;51.202;8.698;2023-07-31T11:13:26;2.95;;;1.90;;
4812;SDS011;2420;51.202;8.698;2023-07-31T11:15:56;2.78;;;1.90;;
4812;SDS011;2420;51.202;8.698;2023-07-31T11:18:22;2.40;;;1.80;;
4812;SDS011;2420;51.202;8.698;2023-07-31T11:20:47;3.28;;;1.92;;
4812;SDS011;2420;51.202;8.698;2023-07-31T11:23:15;3.42;;;2.38;;
4812;SDS011;2420;51.202;8.698;2023-07-31T11:25:41;4.57;;;2.00;;
4812;SDS011;2420;51.202;8.698;2023-07-31T11:28:14;4.18;;;2.20;;
4812;SDS011;2420;51.202;8.698;2023-07-31T11:30:41;2.78;;;1.80;;
4812;SDS011;2420;51.202;8.698;2023-07-31T11:33:08;3.15;;;2.15;;
4812;SDS011;2420;51.202;8.698;2023-07-31T11:35:36;2.63;;;2.08;;
4812;SDS011;2420;51.202;8.698;2023-07-31T11:38:10;2.85;;;2.22;;
4812;SDS011;2420;51.202;8.698;2023-07-31T11:40:52;3.22;;;2.40;;
4812;SDS011;2420;51.202;8.698;2023-07-31T11:43:20;3.80;;;2.20;;
4812;SDS011;2420;51.202;8.698;2023-07-31T11:45:47;4.13;;;2.50;;
4812;SDS011;2420;51.202;8.698;2023-07-31T11:48:26;3.20;;;2.40;;
4812;SDS011;2420;51.202;8.698;2023-07-31T11:50:55;2.80;;;2.20;;
4812;SDS011;2420;51.202;8.698;2023-07-31T11:53:44;4.43;;;2.50;;
4812;SDS011;2420;51.202;8.698;2023-07-31T11:56:20;3.53;;;2.30;;
4812;SDS011;2420;51.202;8.698;2023-07-31T11:58:48;3.60;;;2.72;;
4812;SDS011;2420;51.202;8.698;2023-07-31T12:01:17;3.60;;;2.60;;
4812;SDS011;2420;51.202;8.698;2023-07-31T12:03:45;3.67;;;2.45;;
4812;SDS011;2420;51.202;8.698;2023-07-31T12:06:12;5.43;;;2.80;;
4812;SDS011;2420;51.202;8.698;2023-07-31T12:08:37;6.72;;;2.53;;
4812;SDS011;2420;51.202;8.698;2023-07-31T12:11:04;3.17;;;2.85;;
4812;SDS011;2420;51.202;8.698;2023-07-31T12:13:30;4.47;;;3.28;;
4812;SDS011;2420;51.202;8.698;2023-07-31T12:15:58;4.15;;;2.95;;
4812;SDS011;2420;51.202;8.698;2023-07-31T12:18:26;5.28;;;3.17;;
4812;SDS011;2420;51.202;8.698;2023-07-31T12:20:56;4.75;;;3.00;;
4812;SDS011;2420;51.202;8.698;2023-07-31T12:23:27;4.50;;;2.80;;
4812;SDS011;2420;51.202;8.698;2023-07-31T12:28:28;4.22;;;3.03;;
4812;SDS011;2420;51.202;8.698;2023-07-31T12:30:56;6.18;;;2.97;;
4812;SDS011;2420;51.202;8.698;2023-07-31T12:33:32;4.97;;;3.30;;
4812;SDS011;2420;51.202;8.698;2023-07-31T12:36:03;4.97;;;3.30;;
4812;SDS011;2420;51.202;8.698;2023-07-31T12:38:36;5.70;;;3.28;;
4812;SDS011;2420;51.202;8.698;2023-07-31T12:41:02;6.45;;;3.72;;
4812;SDS011;2420;51.202;8.698;2023-07-31T12:43:28;4.88;;;3.25;;
4812;SDS011;2420;51.202;8.698;2023-07-31T12:45:54;8.02;;;3.70;;
4812;SDS011;2420;51.202;8.698;2023-07-31T12:48:23;4.53;;;3.25;;
4812;SDS011;2420;51.202;8.698;2023-07-31T12:50:48;3.38;;;2.95;;
4812;SDS011;2420;51.202;8.698;2023-07-31T12:53:17;5.72;;;3.40;;
4812;SDS011;2420;51.202;8.698;2023-07-31T12:55:42;6.53;;;3.22;;
4812;SDS011;2420;51.202;8.698;2023-07-31T12:58:08;5.60;;;3.15;;
4812;SDS011;2420;51.202;8.698;2023-07-31T13:00:34;5.13;;;2.97;;
4812;SDS011;2420;51.202;8.698;2023-07-31T13:03:00;4.85;;;3.30;;
4812;SDS011;2420;51.202;8.698;2023-07-31T13:05:26;5.97;;;3.20;;
4812;SDS011;2420;51.202;8.698;2023-07-31T13:07:52;4.40;;;3.10;;
4812;SDS011;2420;51.202;8.698;2023-07-31T13:10:18;5.97;;;3.00;;
4812;SDS011;2420;51.202;8.698;2023-07-31T13:12:44;8.00;;;2.78;;
4812;SDS011;2420;51.202;8.698;2023-07-31T13:15:09;5.22;;;3.08;;
4812;SDS011;2420;51.202;8.698;2023-07-31T13:17:35;4.82;;;2.88;;
4812;SDS011;2420;51.202;8.698;2023-07-31T13:20:01;4.25;;;2.80;;
4812;SDS011;2420;51.202;8.698;2023-07-31T13:22:28;4.00;;;2.70;;
4812;SDS011;2420;51.202;8.698;2023-07-31T13:24:54;4.10;;;2.85;;
4812;SDS011;2420;51.202;8.698;2023-07-31T13:27:20;5.63;;;2.72;;
4812;SDS011;2420;51.202;8.698;2023-07-31T13:29:47;3.78;;;2.50;;
4812;SDS011;2420;51.202;8.698;2023-07-31T13:32:21;6.15;;;2.65;;
4812;SDS011;2420;51.202;8.698;2023-07-31T13:34:47;5.05;;;2.60;;
4812;SDS011;2420;51.202;8.698;2023-07-31T13:37:13;3.22;;;2.47;;
4812;SDS011;2420;51.202;8.698;2023-07-31T13:39:39;3.22;;;2.40;;
4812;SDS011;2420;51.202;8.698;2023-07-31T13:42:06;3.40;;;2.40;;
4812;SDS011;2420;51.202;8.698;2023-07-31T13:44:33;2.88;;;2.10;;
4812;SDS011;2420;51.202;8.698;2023-07-31T13:47:08;3.22;;;2.20;;
4812;SDS011;2420;51.202;8.698;2023-07-31T13:49:34;5.07;;;2.20;;
4812;SDS011;2420;51.202;8.698;2023-07-31T13:52:01;2.65;;;2.03;;
4812;SDS011;2420;51.202;8.698;2023-07-31T13:54:27;3.67;;;2.00;;
4812;SDS011;2420;51.202;8.698;2023-07-31T13:56:52;3.00;;;1.83;;
4812;SDS011;2420;51.202;8.698;2023-07-31T13:59:18;2.72;;;2.00;;
4812;SDS011;2420;51.202;8.698;2023-07-31T14:01:45;3.00;;;2.13;;
4812;SDS011;2420;51.202;8.698;2023-07-31T14:04:11;3.10;;;2.03;;
4812;SDS011;2420;51.202;8.698;2023-07-31T14:06:37;3.45;;;1.90;;
4812;SDS011;2420;51.202;8.698;2023-07-31T14:09:03;2.22;;;1.83;;
4812;SDS011;2420;51.202;8.698;2023-07-31T14:11:28;1.80;;;1.70;;
4812;SDS011;2420;51.202;8.698;2023-07-31T14:13:56;3.58;;;2.03;;
4812;SDS011;2420;51.202;8.698;2023-07-31T14:16:22;2.85;;;1.98;;
4812;SDS011;2420;51.202;8.698;2023-07-31T14:18:47;2.78;;;1.80;;
4812;SDS011;2420;51.202;8.698;2023-07-31T14:21:13;2.30;;;1.75;;
4812;SDS011;2420;51.202;8.698;2023-07-31T14:23:39;2.30;;;1.75;;
4812;SDS011;2420;51.202;8.698;2023-07-31T14:26:05;3.60;;;1.85;;
4812;SDS011;2420;51.202;8.698;2023-07-31T14:28:31;2.22;;;1.60;;
4812;SDS011;2420;51.202;8.698;2023-07-31T14:30:56;2.53;;;1.70;;
4812;SDS011;2420;51.202;8.698;2023-07-31T14:33:22;3.33;;;1.88;;
4812;SDS011;2420;51.202;8.698;2023-07-31T14:35:48;2.92;;;1.90;;
4812;SDS011;2420;51.202;8.698;2023-07-31T14:38:14;3.90;;;1.70;;
4812;SDS011;2420;51.202;8.698;2023-07-31T14:40:39;1.90;;;1.70;;
4812;SDS011;2420;51.202;8.698;2023-07-31T14:43:05;3.35;;;1.92;;
4812;SDS011;2420;51.202;8.698;2023-07-31T14:45:30;2.55;;;1.90;;
4812;SDS011;2420;51.202;8.698;2023-07-31T14:47:56;3.78;;;1.70;;
4812;SDS011;2420;51.202;8.698;2023-07-31T14:50:21;3.50;;;1.98;;
4812;SDS011;2420;51.202;8.698;2023-07-31T14:52:48;3.28;;;1.90;;
4812;SDS011;2420;51.202;8.698;2023-07-31T14:55:14;2.20;;;1.90;;
4812;SDS011;2420;51.202;8.698;2023-07-31T14:57:40;2.28;;;2.00;;
4812;SDS011;2420;51.202;8.698;2023-07-31T15:00:05;1.90;;;1.70;;
4812;SDS011;2420;51.202;8.698;2023-07-31T15:02:34;2.30;;;2.00;;
4812;SDS011;2420;51.202;8.698;2023-07-31T15:05:00;2.30;;;2.10;;
4812;SDS011;2420;51.202;8.698;2023-07-31T15:07:26;2.67;;;1.95;;
4812;SDS011;2420;51.202;8.698;2023-07-31T15:09:51;2.65;;;2.10;;
4812;SDS011;2420;51.202;8.698;2023-07-31T15:12:17;2.72;;;2.00;;
4812;SDS011;2420;51.202;8.698;2023-07-31T15:14:42;2.00;;;1.80;;
4812;SDS011;2420;51.202;8.698;2023-07-31T15:17:08;3.45;;;2.00;;
4812;SDS011;2420;51.202;8.698;2023-07-31T15:19:33;2.25;;;1.65;;
4812;SDS011;2420;51.202;8.698;2023-07-31T15:22:00;2.47;;;1.77;;
4812;SDS011;2420;51.202;8.698;2023-07-31T15:24:26;4.82;;;2.00;;